Time;durP1;ratioP1;P1;durP2;ratioP2;P2;SDS_P1;SDS_P2;PMS_P1;PMS_P2;Temp;Humidity;BMP_temperature;BMP_pressure;BME280_temperature;BME280_humidity;BME280_pressure;Samples;Min_cycle;Max_cycle;Signal;HPM_P1;HPM_P2
2022/10/03 00:02:27;;;;;;;36.40;10.17;;;12.70;99.90;;;;;;5077926;28;21116;-69
2022/10/03 00:05:10;;;;;;;75.20;12.00;;;12.80;99.90;;;;;;5082170;28;20903;-70
2022/10/03 00:08:29;;;;;;;77.00;12.80;;;12.80;99.90;;;;;;5088760;28;20417;-69
2022/10/03 00:11:22;;;;;;;95.90;12.90;;;12.80;99.90;;;;;;5066223;28;20465;-70
2022/10/03 00:13:56;;;;;;;50.43;10.40;;;12.80;99.90;;;;;;5088625;28;20436;-71
2022/10/03 00:16:53;;;;;;;58.63;11.60;;;12.70;99.90;;;;;;5080611;28;20460;-70
2022/10/03 00:19:23;;;;;;;65.37;11.60;;;12.80;99.90;;;;;;5086598;28;20482;-71
2022/10/03 00:22:24;;;;;;;44.07;11.23;;;12.80;99.90;;;;;;5086459;28;20704;-72
2022/10/03 00:25:19;;;;;;;42.57;10.33;;;12.90;99.90;;;;;;5086609;28;20440;-70
2022/10/03 00:27:54;;;;;;;29.83;8.90;;;12.80;99.90;;;;;;5088677;28;20795;-71
2022/10/03 00:30:22;;;;;;;27.77;8.70;;;12.80;99.90;;;;;;5091807;28;20433;-71
2022/10/03 00:32:56;;;;;;;28.83;9.00;;;12.80;99.90;;;;;;5089625;28;20534;-73
2022/10/03 00:35:48;;;;;;;26.70;9.07;;;12.70;99.90;;;;;;5090990;28;20437;-71
2022/10/03 00:38:43;;;;;;;44.33;9.80;;;12.60;99.90;;;;;;5085168;28;20465;-69
2022/10/03 00:41:31;;;;;;;36.90;9.20;;;13.00;99.90;;;;;;5084743;28;20776;-74
2022/10/03 00:44:33;;;;;;;33.80;10.10;;;12.50;99.90;;;;;;5083139;28;20785;-69
2022/10/03 00:47:28;;;;;;;44.40;10.17;;;12.50;99.90;;;;;;5088619;28;20434;-72
2022/10/03 00:50:18;;;;;;;36.33;9.70;;;12.50;99.90;;;;;;5089774;28;20446;-72
2022/10/03 00:53:09;;;;;;;46.37;10.90;;;12.60;99.90;;;;;;5087650;28;20450;-70
2022/10/03 00:55:44;;;;;;;47.70;10.97;;;12.50;99.90;;;;;;5090233;28;20406;-74
2022/10/03 00:58:32;;;;;;;44.30;11.47;;;12.50;99.90;;;;;;5085158;28;20445;-71
2022/10/03 01:01:18;;;;;;;50.30;11.43;;;12.50;99.90;;;;;;5087998;28;20417;-70
2022/10/03 01:03:58;;;;;;;43.47;11.47;;;12.50;99.90;;;;;;5086461;28;20434;-71
2022/10/03 01:06:46;;;;;;;41.40;11.40;;;12.60;99.90;;;;;;5080708;28;20414;-70
2022/10/03 01:09:29;;;;;;;33.50;9.70;;;12.50;99.90;;;;;;5084764;28;20520;-71
2022/10/03 01:12:28;;;;;;;37.63;10.80;;;12.40;99.90;;;;;;5077563;28;20479;-72
2022/10/03 01:15:21;;;;;;;28.30;9.40;;;12.20;99.90;;;;;;5091574;28;20406;-73
2022/10/03 01:18:31;;;;;;;29.50;10.03;;;12.20;99.90;;;;;;5089541;28;20465;-72
2022/10/03 01:21:08;;;;;;;30.47;10.40;;;12.20;99.90;;;;;;5086574;28;20444;-71
2022/10/03 01:23:57;;;;;;;30.50;9.87;;;12.20;99.90;;;;;;5087889;28;20451;-71
2022/10/03 01:26:38;;;;;;;35.13;10.60;;;12.10;99.90;;;;;;5087814;28;20425;-74
2022/10/03 01:32:36;;;;;;;33.83;10.67;;;12.00;99.90;;;;;;5077723;28;20946;-70
2022/10/03 01:35:05;;;;;;;29.60;10.83;;;11.90;99.90;;;;;;5081337;28;20467;-71
2022/10/03 01:37:40;;;;;;;34.67;11.13;;;11.90;99.90;;;;;;5089141;28;20525;-72
2022/10/03 01:40:18;;;;;;;27.43;10.47;;;12.00;99.90;;;;;;5069810;28;20461;-74
2022/10/03 01:43:10;;;;;;;35.83;11.27;;;12.10;99.90;;;;;;5083167;28;20443;-71
2022/10/03 01:46:17;;;;;;;28.57;10.73;;;12.20;99.90;;;;;;5086212;28;20436;-73
2022/10/03 01:49:12;;;;;;;27.70;10.73;;;12.20;99.90;;;;;;5085585;28;20459;-72
2022/10/03 01:52:03;;;;;;;38.07;11.17;;;12.20;99.90;;;;;;5080256;28;20425;-71
2022/10/03 01:54:52;;;;;;;25.13;10.60;;;12.20;99.90;;;;;;5089545;28;20776;-70
2022/10/03 01:57:39;;;;;;;19.50;10.13;;;12.20;99.90;;;;;;5087818;28;20866;-69
2022/10/03 02:00:12;;;;;;;26.23;10.57;;;12.30;99.90;;;;;;5082909;28;20445;-69
2022/10/03 02:02:57;;;;;;;20.90;10.47;;;12.30;99.90;;;;;;5079592;28;20439;-71
2022/10/03 02:05:34;;;;;;;20.67;10.20;;;12.30;99.90;;;;;;5090239;28;20459;-69
2022/10/03 02:08:15;;;;;;;17.43;9.63;;;12.40;99.90;;;;;;5083379;28;20967;-71
2022/10/03 02:10:49;;;;;;;17.40;9.60;;;12.40;99.90;;;;;;5083276;28;20752;-69
2022/10/03 02:13:23;;;;;;;21.70;9.77;;;12.40;99.90;;;;;;5085797;28;20444;-70
2022/10/03 02:16:14;;;;;;;19.17;10.10;;;12.40;99.90;;;;;;5079714;28;20827;-69
2022/10/03 02:18:59;;;;;;;18.60;9.90;;;12.40;99.90;;;;;;5089433;28;20775;-74
2022/10/03 02:21:31;;;;;;;20.93;10.33;;;12.40;99.90;;;;;;5082591;28;20426;-70
2022/10/03 02:24:25;;;;;;;17.53;8.93;;;12.40;99.90;;;;;;5082517;28;20920;-73
2022/10/03 02:27:10;;;;;;;14.77;8.33;;;12.40;99.90;;;;;;5079128;28;20445;-74
2022/10/03 02:30:10;;;;;;;20.40;9.43;;;12.40;99.90;;;;;;5089369;28;20547;-69
2022/10/03 02:32:35;;;;;;;18.60;10.00;;;12.50;99.90;;;;;;5082509;28;20457;-70
2022/10/03 02:35:22;;;;;;;20.00;9.87;;;12.40;99.90;;;;;;5081570;28;20530;-72
2022/10/03 02:38:18;;;;;;;17.53;9.37;;;12.50;99.90;;;;;;5090234;28;20328;-70
2022/10/03 02:40:59;;;;;;;16.60;9.10;;;12.50;99.90;;;;;;5076188;28;20491;-72
2022/10/03 02:44:02;;;;;;;15.67;9.03;;;12.50;99.90;;;;;;5087273;28;20417;-70
2022/10/03 02:46:53;;;;;;;16.93;9.23;;;12.50;99.90;;;;;;5085024;28;20452;-70
2022/10/03 02:49:55;;;;;;;19.20;10.23;;;12.40;99.90;;;;;;5093703;28;20880;-70
2022/10/03 02:52:39;;;;;;;18.00;9.07;;;12.60;99.90;;;;;;5081083;28;20424;-72
2022/10/03 02:55:26;;;;;;;21.53;10.37;;;12.40;99.90;;;;;;5084211;28;20753;-72
2022/10/03 02:58:17;;;;;;;23.30;10.80;;;12.30;99.90;;;;;;5089567;28;20398;-71
2022/10/03 03:00:45;;;;;;;22.00;10.13;;;12.20;99.90;;;;;;5085285;28;20545;-72
2022/10/03 03:03:37;;;;;;;20.10;9.80;;;12.20;99.90;;;;;;5086805;28;20863;-69
2022/10/03 03:06:16;;;;;;;23.53;10.50;;;12.10;99.90;;;;;;5085284;28;20432;-71
2022/10/03 03:09:03;;;;;;;23.10;10.53;;;12.00;99.90;;;;;;5088993;28;20801;-69
2022/10/03 03:12:02;;;;;;;28.33;10.30;;;12.00;99.90;;;;;;5079007;28;20426;-70
2022/10/03 03:14:56;;;;;;;23.00;9.87;;;12.00;99.90;;;;;;5085628;28;20414;-71
2022/10/03 03:17:33;;;;;;;26.10;10.93;;;11.90;99.90;;;;;;5089503;28;20872;-70
2022/10/03 03:20:17;;;;;;;30.60;10.93;;;11.80;99.90;;;;;;5096882;28;20542;-70
2022/10/03 03:23:05;;;;;;;21.77;10.60;;;11.80;99.90;;;;;;5084619;28;20426;-70
2022/10/03 03:25:58;;;;;;;22.93;10.30;;;11.80;99.90;;;;;;5088658;28;20420;-70
2022/10/03 03:29:00;;;;;;;21.63;10.60;;;11.80;99.90;;;;;;5085836;28;20540;-70
2022/10/03 03:31:27;;;;;;;21.23;9.90;;;11.80;99.90;;;;;;5083742;28;20455;-72
2022/10/03 03:34:24;;;;;;;22.90;10.47;;;11.70;99.90;;;;;;5081800;28;20433;-71
2022/10/03 03:37:18;;;;;;;17.90;9.30;;;11.70;99.90;;;;;;5088784;28;20398;-73
2022/10/03 03:40:21;;;;;;;16.50;9.20;;;11.60;99.90;;;;;;5077886;28;20468;-69
2022/10/03 03:43:05;;;;;;;24.53;9.87;;;11.60;99.90;;;;;;5085154;28;20418;-70
2022/10/03 03:45:31;;;;;;;19.60;9.73;;;11.60;99.90;;;;;;5085015;28;20434;-73
2022/10/03 03:48:25;;;;;;;24.03;10.40;;;11.50;99.90;;;;;;5087743;28;20900;-70
2022/10/03 03:50:59;;;;;;;26.27;10.20;;;11.60;99.90;;;;;;5085250;28;20172;-70
2022/10/03 03:53:50;;;;;;;37.10;10.60;;;11.60;99.90;;;;;;5088012;28;20417;-73
2022/10/03 03:56:30;;;;;;;25.07;9.60;;;11.60;99.90;;;;;;5084582;28;20434;-69
2022/10/03 03:59:07;;;;;;;23.73;10.00;;;11.50;99.90;;;;;;5091332;28;20461;-72
2022/10/03 04:02:06;;;;;;;21.50;9.00;;;11.40;99.90;;;;;;5084288;28;20433;-69
2022/10/03 04:04:59;;;;;;;17.80;9.17;;;11.40;99.90;;;;;;5092494;28;20404;-70
2022/10/03 04:07:52;;;;;;;20.30;8.97;;;11.30;99.90;;;;;;5089582;28;20508;-71
2022/10/03 04:10:32;;;;;;;26.93;10.23;;;11.20;99.90;;;;;;5080429;28;20449;-70
2022/10/03 04:13:25;;;;;;;19.80;9.17;;;11.10;99.90;;;;;;5092160;28;20420;-69
2022/10/03 04:19:53;;;;;;;19.80;9.07;;;11.00;99.90;;;;;;5086207;28;21049;-71
2022/10/03 04:22:56;;;;;;;20.30;9.87;;;10.90;99.90;;;;;;5070090;28;20494;-71
2022/10/03 04:25:53;;;;;;;28.20;9.40;;;10.80;99.90;;;;;;5083269;28;20863;-72
2022/10/03 04:28:46;;;;;;;23.87;9.53;;;10.80;99.90;;;;;;5085992;28;20494;-70
2022/10/03 04:31:29;;;;;;;25.03;9.90;;;10.70;99.90;;;;;;5088070;28;20476;-73
2022/10/03 04:34:13;;;;;;;18.70;8.03;;;10.70;99.90;;;;;;5084366;28;20468;-70
2022/10/03 04:36:48;;;;;;;17.10;9.10;;;10.60;99.90;;;;;;5090071;28;20410;-70
2022/10/03 04:39:35;;;;;;;25.20;8.43;;;10.60;99.90;;;;;;5085226;28;20456;-73
2022/10/03 04:42:07;;;;;;;18.63;7.97;;;10.60;99.90;;;;;;5083718;28;20425;-70
2022/10/03 04:44:33;;;;;;;21.03;8.43;;;10.60;99.90;;;;;;5092009;28;20413;-71
2022/10/03 04:47:14;;;;;;;24.70;8.50;;;10.60;99.90;;;;;;5088628;28;20430;-71
2022/10/03 04:50:14;;;;;;;16.53;6.93;;;10.70;99.90;;;;;;5087517;28;20874;-70
2022/10/03 04:52:55;;;;;;;17.10;7.30;;;10.60;99.90;;;;;;5088975;28;20410;-69
2022/10/03 04:55:53;;;;;;;16.47;6.97;;;10.40;99.90;;;;;;5087181;28;20436;-71
2022/10/03 04:58:33;;;;;;;18.00;6.83;;;10.30;99.90;;;;;;5087489;28;20459;-70
2022/10/03 05:01:08;;;;;;;18.80;6.60;;;10.20;99.90;;;;;;5084899;28;20511;-70
2022/10/03 05:03:59;;;;;;;16.33;6.30;;;10.10;99.90;;;;;;5087895;28;20429;-70
2022/10/03 05:06:24;;;;;;;19.77;6.93;;;10.00;99.90;;;;;;5086821;28;20403;-69
2022/10/03 05:08:58;;;;;;;18.63;7.40;;;9.90;99.90;;;;;;5086341;28;20978;-70
2022/10/03 05:11:46;;;;;;;16.03;7.20;;;9.80;99.90;;;;;;5091175;28;20241;-73
2022/10/03 05:14:48;;;;;;;19.97;7.27;;;9.80;99.90;;;;;;5089070;28;20444;-69
2022/10/03 05:17:18;;;;;;;15.90;7.20;;;9.70;99.90;;;;;;5084728;28;20511;-70
2022/10/03 05:20:05;;;;;;;13.07;6.47;;;9.70;99.90;;;;;;5087214;28;20458;-69
2022/10/03 05:22:37;;;;;;;13.73;7.13;;;9.60;99.90;;;;;;5091201;28;20413;-70
2022/10/03 05:25:32;;;;;;;11.60;6.20;;;9.60;99.90;;;;;;5084296;28;20434;-73
2022/10/03 05:28:10;;;;;;;13.80;6.30;;;9.60;99.90;;;;;;5091041;28;20401;-69
2022/10/03 05:31:02;;;;;;;12.80;6.40;;;9.60;99.90;;;;;;5079266;28;20445;-72
2022/10/03 05:34:02;;;;;;;17.20;6.67;;;9.60;99.90;;;;;;5091033;28;20408;-69
2022/10/03 05:37:11;;;;;;;12.50;6.93;;;9.60;99.90;;;;;;5086187;28;20425;-73
2022/10/03 05:39:45;;;;;;;12.27;6.50;;;9.60;99.90;;;;;;5083718;28;20465;-72
2022/10/03 05:42:26;;;;;;;38.60;8.53;;;9.60;99.90;;;;;;5085283;28;20425;-71
2022/10/03 05:45:22;;;;;;;18.77;7.10;;;9.60;99.90;;;;;;5087568;28;20434;-70
2022/10/03 05:48:05;;;;;;;17.83;7.63;;;9.60;99.90;;;;;;5100141;28;20439;-72
2022/10/03 05:50:58;;;;;;;23.23;7.80;;;9.70;99.90;;;;;;5081969;28;20434;-70
2022/10/03 05:53:39;;;;;;;22.03;7.10;;;9.80;99.90;;;;;;5085240;28;20429;-71
2022/10/03 05:56:43;;;;;;;22.73;7.17;;;9.90;99.90;;;;;;5070419;28;20909;-70
2022/10/03 05:59:32;;;;;;;20.17;7.80;;;9.90;99.90;;;;;;5082058;28;20519;-73
2022/10/03 06:02:16;;;;;;;21.30;7.67;;;9.90;99.90;;;;;;5086610;28;20951;-69
2022/10/03 06:05:06;;;;;;;17.40;9.40;;;9.90;99.90;;;;;;5078494;28;20430;-72
2022/10/03 06:07:50;;;;;;;22.77;14.60;;;10.00;99.90;;;;;;5083222;28;20436;-74
2022/10/03 06:10:34;;;;;;;15.60;8.27;;;10.10;99.90;;;;;;5081252;28;20402;-69
2022/10/03 06:13:11;;;;;;;10.90;7.00;;;10.10;99.90;;;;;;5090432;28;20445;-72
2022/10/03 06:16:10;;;;;;;10.70;7.00;;;10.10;99.90;;;;;;5088882;28;20432;-73
2022/10/03 06:18:35;;;;;;;14.53;9.17;;;10.10;99.90;;;;;;5089580;28;20430;-71
2022/10/03 06:21:36;;;;;;;14.53;8.07;;;10.20;99.90;;;;;;5086241;28;20473;-69
2022/10/03 06:24:31;;;;;;;55.83;9.23;;;10.30;99.90;;;;;;5073534;28;20173;-71
2022/10/03 06:27:02;;;;;;;14.33;8.00;;;10.40;99.90;;;;;;5078093;28;20438;-71
2022/10/03 06:29:40;;;;;;;14.00;8.50;;;10.50;99.90;;;;;;5089999;28;20536;-69
2022/10/03 06:32:31;;;;;;;24.80;7.50;;;10.50;99.90;;;;;;5080610;28;20427;-70
2022/10/03 06:35:26;;;;;;;19.63;7.70;;;10.60;99.90;;;;;;5080753;28;20437;-71
2022/10/03 06:38:09;;;;;;;11.87;7.03;;;10.60;99.90;;;;;;5067745;28;20450;-69
2022/10/03 06:41:19;;;;;;;10.83;6.53;;;10.70;99.90;;;;;;5077978;28;20861;-76
2022/10/03 06:44:10;;;;;;;8.87;6.20;;;10.70;99.90;;;;;;5072317;28;20529;-74
2022/10/03 06:46:53;;;;;;;14.55;7.53;;;10.80;99.90;;;;;;5081603;28;21019;-72
2022/10/03 06:49:31;;;;;;;15.10;7.60;;;10.90;99.90;;;;;;5090846;28;20600;-69
2022/10/03 06:52:18;;;;;;;7.03;5.93;;;11.00;99.90;;;;;;5088928;28;20413;-72
2022/10/03 06:55:21;;;;;;;8.80;6.27;;;11.20;99.90;;;;;;5069025;28;20411;-74
2022/10/03 06:58:14;;;;;;;11.80;7.03;;;11.30;99.90;;;;;;5084007;28;20784;-72
2022/10/03 07:01:10;;;;;;;16.50;7.40;;;11.40;99.90;;;;;;5082811;28;20510;-73
2022/10/03 07:04:00;;;;;;;13.97;7.83;;;11.60;99.90;;;;;;5085830;28;20695;-74
2022/10/03 07:06:50;;;;;;;17.43;8.33;;;11.60;99.90;;;;;;5084373;28;20423;-71
2022/10/03 07:09:53;;;;;;;20.63;9.80;;;11.70;99.90;;;;;;5085661;28;20456;-73
2022/10/03 07:12:32;;;;;;;14.13;8.70;;;11.70;99.90;;;;;;5082822;28;20469;-71
2022/10/03 07:15:17;;;;;;;18.70;10.30;;;11.80;99.90;;;;;;5075221;28;20958;-73
2022/10/03 07:18:10;;;;;;;14.87;10.53;;;12.20;99.90;;;;;;5086707;28;20490;-71
2022/10/03 07:21:03;;;;;;;19.33;9.20;;;12.20;99.90;;;;;;5081915;28;20457;-71
2022/10/03 07:23:49;;;;;;;19.97;10.40;;;12.30;99.90;;;;;;5083017;28;20511;-76
2022/10/03 07:26:26;;;;;;;16.47;9.53;;;12.50;99.90;;;;;;5083059;28;20461;-71
2022/10/03 07:29:07;;;;;;;21.90;10.60;;;12.50;99.90;;;;;;5079366;28;20575;-74
2022/10/03 07:31:44;;;;;;;15.10;10.07;;;12.60;99.90;;;;;;5086242;28;20949;-73
2022/10/03 07:34:52;;;;;;;17.33;9.93;;;12.60;99.90;;;;;;5074968;28;20425;-72
2022/10/03 07:40:38;;;;;;;16.33;10.47;;;12.70;99.90;;;;;;5088518;28;20548;-71
2022/10/03 07:43:24;;;;;;;15.20;11.30;;;12.70;99.90;;;;;;5087033;28;20419;-73
2022/10/03 07:46:08;;;;;;;23.00;12.23;;;12.80;99.90;;;;;;5083386;28;20784;-74
2022/10/03 07:48:52;;;;;;;18.73;12.70;;;12.90;99.90;;;;;;5082230;28;20514;-74
2022/10/03 07:51:59;;;;;;;16.40;11.30;;;13.00;99.90;;;;;;5087188;28;20430;-72
2022/10/03 07:54:58;;;;;;;19.90;12.40;;;13.20;99.90;;;;;;5082968;28;21214;-71
2022/10/03 07:57:36;;;;;;;19.30;13.57;;;13.40;99.90;;;;;;5086369;28;20525;-71
2022/10/03 08:00:09;;;;;;;17.10;10.80;;;13.80;99.90;;;;;;5083843;28;20453;-70
2022/10/03 08:02:43;;;;;;;30.47;15.40;;;14.20;99.90;;;;;;5083022;28;20430;-77
2022/10/03 08:05:52;;;;;;;31.60;18.50;;;14.20;99.90;;;;;;5090429;28;20934;-72
2022/10/03 08:08:42;;;;;;;25.30;15.73;;;14.00;99.90;;;;;;5072607;28;20521;-71
2022/10/03 08:11:26;;;;;;;28.63;14.60;;;14.10;99.90;;;;;;5072866;28;20885;-74
2022/10/03 08:14:00;;;;;;;27.00;13.90;;;14.20;99.90;;;;;;5073742;28;20494;-72
2022/10/03 08:16:41;;;;;;;26.73;14.57;;;14.60;99.90;;;;;;5092892;28;20405;-70
2022/10/03 08:19:06;;;;;;;20.53;13.80;;;15.00;96.20;;;;;;5098058;28;20456;-71
2022/10/03 08:22:01;;;;;;;23.90;15.23;;;15.40;92.70;;;;;;5113412;28;20956;-71
2022/10/03 08:24:42;;;;;;;31.07;14.00;;;15.60;73.20;;;;;;5113129;28;20195;-73
2022/10/03 08:27:23;;;;;;;26.10;13.23;;;15.40;80.60;;;;;;5113880;27;20419;-70
2022/10/03 08:30:02;;;;;;;27.80;13.73;;;15.30;62.70;;;;;;5113468;28;21594;-71
2022/10/03 08:32:43;;;;;;;27.23;14.87;;;15.00;55.50;;;;;;5113609;28;20801;-72
2022/10/03 08:35:30;;;;;;;26.17;14.43;;;14.90;72.70;;;;;;5113036;28;20447;-73
2022/10/03 08:38:22;;;;;;;25.00;14.37;;;14.90;79.70;;;;;;5098234;28;20485;-74
2022/10/03 08:41:03;;;;;;;23.63;12.97;;;14.90;77.70;;;;;;5092489;28;20955;-70
2022/10/03 08:43:47;;;;;;;26.00;15.50;;;15.10;80.10;;;;;;5092672;28;20860;-72
2022/10/03 08:46:40;;;;;;;22.53;13.10;;;15.90;53.80;;;;;;5097950;28;20413;-72
2022/10/03 08:49:43;;;;;;;23.83;13.00;;;16.70;43.70;;;;;;5097629;28;20523;-72
2022/10/03 08:52:27;;;;;;;22.93;13.10;;;16.70;27.90;;;;;;5112774;28;20419;-72
2022/10/03 08:54:58;;;;;;;18.80;13.33;;;18.80;14.60;;;;;;5112279;28;20409;-71
2022/10/03 08:57:36;;;;;;;21.63;13.20;;;20.80;1.00;;;;;;5113486;28;20394;-71
2022/10/03 09:00:16;;;;;;;22.00;13.07;;;21.90;1.00;;;;;;5112998;28;20540;-73
2022/10/03 09:03:05;;;;;;;17.57;11.70;;;22.50;1.00;;;;;;5099170;28;20403;-74
2022/10/03 09:05:52;;;;;;;18.70;12.17;;;23.80;1.00;;;;;;5071908;28;20900;-72
2022/10/03 09:08:27;;;;;;;17.53;11.93;;;24.50;1.00;;;;;;5086564;28;20477;-73
2022/10/03 09:11:22;;;;;;;16.33;12.00;;;25.30;1.00;;;;;;5091778;28;20409;-71
2022/10/03 09:13:51;;;;;;;18.30;12.80;;;26.20;1.00;;;;;;5092311;28;20412;-74
2022/10/03 09:16:41;;;;;;;15.40;12.50;;;26.60;1.00;;;;;;5098409;28;20432;-73
2022/10/03 09:19:48;;;;;;;17.10;11.90;;;25.70;1.00;;;;;;5097534;28;20818;-73
2022/10/03 09:22:32;;;;;;;17.23;13.00;;;25.00;1.00;;;;;;5112253;28;20400;-73
2022/10/03 09:25:22;;;;;;;17.43;12.00;;;23.30;1.00;;;;;;5112096;28;20447;-72
2022/10/03 09:28:09;;;;;;;14.17;10.30;;;24.40;1.00;;;;;;5112770;28;20473;-71
2022/10/03 09:30:54;;;;;;;22.30;10.40;;;26.00;1.00;;;;;;5112680;27;20416;-75
2022/10/03 09:33:49;;;;;;;15.27;10.87;;;27.50;1.00;;;;;;5111996;28;20400;-72
2022/10/03 09:36:41;;;;;;;14.20;9.90;;;28.50;1.00;;;;;;5111881;28;20400;-73
2022/10/03 09:39:51;;;;;;;18.90;9.73;;;28.00;1.00;;;;;;5112581;28;20646;-72
2022/10/03 09:42:48;;;;;;;14.30;8.63;;;26.90;1.00;;;;;;5086378;28;20498;-74
2022/10/03 09:45:25;;;;;;;16.50;9.10;;;24.90;1.00;;;;;;5079956;28;20433;-76
2022/10/03 09:48:21;;;;;;;16.13;8.50;;;25.20;1.00;;;;;;5093807;28;20434;-74
2022/10/03 09:51:06;;;;;;;13.10;8.50;;;25.50;1.00;;;;;;5090241;28;20806;-73
2022/10/03 09:54:03;;;;;;;14.30;9.60;;;27.30;1.00;;;;;;5088858;28;20898;-73
2022/10/03 09:56:38;;;;;;;13.93;8.10;;;28.10;1.00;;;;;;5079234;28;20947;-74
2022/10/03 09:59:40;;;;;;;15.97;7.77;;;29.30;1.00;;;;;;5087576;28;20459;-73
2022/10/03 10:02:45;;;;;;;13.53;7.50;;;31.50;1.00;;;;;;5087063;28;20693;-73
2022/10/03 10:05:29;;;;;;;10.88;6.22;;;32.60;1.00;;;;;;5084753;28;20182;-72
2022/10/03 10:08:47;;;;;;;9.88;7.05;;;32.50;1.00;;;;;;5079441;28;20275;-73
2022/10/03 10:11:48;;;;;;;11.30;7.00;;;30.40;1.00;;;;;;5086595;28;20167;-73
2022/10/03 10:14:28;;;;;;;13.57;7.47;;;28.10;1.00;;;;;;5085780;28;20178;-72
2022/10/03 10:17:10;;;;;;;14.17;8.17;;;25.40;1.00;;;;;;5088644;28;20182;-73
2022/10/03 10:19:35;;;;;;;12.53;7.10;;;23.60;1.00;;;;;;5086594;28;20466;-71
2022/10/03 10:22:23;;;;;;;17.73;7.63;;;22.60;1.00;;;;;;5089193;28;20401;-73
2022/10/03 10:25:04;;;;;;;14.77;7.03;;;22.20;1.00;;;;;;5087776;28;20176;-72
2022/10/03 10:28:22;;;;;;;12.80;6.77;;;23.60;1.00;;;;;;5086712;28;20428;-74
2022/10/03 10:31:14;;;;;;;16.97;6.77;;;26.80;1.00;;;;;;5065669;28;21066;-75
2022/10/03 10:33:55;;;;;;;18.73;6.60;;;27.80;1.00;;;;;;5087834;28;20444;-75
2022/10/03 10:36:39;;;;;;;11.07;5.30;;;29.00;1.00;;;;;;5086675;28;20544;-73
2022/10/03 10:39:19;;;;;;;13.33;4.60;;;30.30;1.00;;;;;;5084978;28;21024;-75
2022/10/03 10:41:45;;;;;;;10.60;4.63;;;31.30;1.00;;;;;;5078131;28;20252;-75
2022/10/03 10:44:58;;;;;;;10.82;5.05;;;33.00;1.00;;;;;;5082194;28;20217;-73
2022/10/03 10:48:01;;;;;;;14.43;5.18;;;33.10;1.00;;;;;;5085090;28;20175;-75
2022/10/03 10:50:52;;;;;;;9.68;4.50;;;34.00;1.00;;;;;;5076213;28;20187;-73
2022/10/03 10:53:55;;;;;;;8.50;4.50;;;35.10;1.00;;;;;;5082437;28;20184;-76
2022/10/03 10:56:41;;;;;;;11.98;4.95;;;35.20;1.00;;;;;;5079917;28;20193;-74
2022/10/03 10:59:46;;;;;;;11.98;4.90;;;33.30;1.00;;;;;;5089781;28;20183;-73
2022/10/03 11:02:49;;;;;;;13.45;4.40;;;30.00;1.00;;;;;;5079982;28;20274;-74
2022/10/03 11:05:33;;;;;;;8.03;4.03;;;27.00;1.00;;;;;;5074870;28;20175;-75
2022/10/03 11:08:17;;;;;;;9.40;4.73;;;24.10;1.00;;;;;;5079731;28;20425;-73
2022/10/03 11:11:11;;;;;;;15.30;5.10;;;23.90;1.00;;;;;;5080202;28;20433;-73
2022/10/03 11:14:02;;;;;;;10.30;4.50;;;22.60;1.00;;;;;;5080419;28;20425;-73
2022/10/03 11:16:59;;;;;;;8.87;4.77;;;21.70;1.00;;;;;;5087085;28;20524;-77
2022/10/03 11:19:46;;;;;;;13.07;4.50;;;20.90;1.00;;;;;;5084457;28;20462;-73
2022/10/03 11:22:47;;;;;;;11.00;4.70;;;20.50;1.00;;;;;;5081781;28;20405;-71
2022/10/03 11:25:46;;;;;;;11.13;4.03;;;21.90;1.00;;;;;;5080751;28;20623;-72
2022/10/03 11:28:31;;;;;;;11.60;4.20;;;26.40;1.00;;;;;;5080222;28;20439;-73
2022/10/03 11:31:49;;;;;;;9.10;4.07;;;29.30;1.00;;;;;;5080373;28;20507;-72
2022/10/03 11:34:26;;;;;;;9.10;4.10;;;31.10;1.00;;;;;;5085206;28;20429;-73
2022/10/03 11:37:04;;;;;;;9.00;4.30;;;33.00;1.00;;;;;;5085241;28;20175;-73
2022/10/03 11:39:56;;;;;;;10.43;3.97;;;33.30;1.00;;;;;;5084451;28;20224;-73
2022/10/03 11:42:39;;;;;;;8.83;4.00;;;32.50;1.00;;;;;;5081633;28;20198;-77
2022/10/03 11:45:13;;;;;;;9.60;3.70;;;30.00;1.00;;;;;;5087227;28;20186;-75
2022/10/03 11:47:42;;;;;;;11.97;3.97;;;27.40;1.00;;;;;;5085649;28;20269;-72
2022/10/03 11:50:28;;;;;;;7.20;3.97;;;25.50;1.00;;;;;;5081445;28;20753;-73
2022/10/03 11:53:06;;;;;;;9.67;4.50;;;24.00;1.00;;;;;;5080314;28;20845;-71
2022/10/03 11:55:37;;;;;;;9.70;4.10;;;22.80;1.00;;;;;;5087121;28;20404;-71
2022/10/03 11:58:19;;;;;;;7.00;3.50;;;22.30;1.00;;;;;;5085755;28;20482;-73
2022/10/03 12:00:52;;;;;;;7.70;3.70;;;21.80;1.00;;;;;;5084680;28;20468;-71
2022/10/03 12:03:29;;;;;;;11.57;4.20;;;21.50;1.00;;;;;;5088052;28;20417;-73
2022/10/03 12:09:24;;;;;;;7.60;4.30;;;21.40;1.00;;;;;;5086170;28;20428;-71
2022/10/03 12:11:51;;;;;;;10.07;4.17;;;21.40;1.00;;;;;;5061709;28;20491;-75
2022/10/03 12:14:28;;;;;;;7.40;4.03;;;23.20;1.00;;;;;;5082280;28;20405;-73
2022/10/03 12:17:11;;;;;;;7.23;3.90;;;25.60;1.00;;;;;;5084757;28;20416;-74
2022/10/03 12:19:55;;;;;;;5.77;3.47;;;27.60;1.00;;;;;;5090152;28;20456;-75
2022/10/03 12:22:32;;;;;;;7.10;3.33;;;29.80;1.00;;;;;;5079175;28;20461;-74
2022/10/03 12:25:16;;;;;;;6.80;3.37;;;32.40;1.00;;;;;;5085174;28;20919;-74
2022/10/03 12:27:42;;;;;;;6.80;3.38;;;;;;;;;;5089546;28;20175;-74
2022/10/03 12:30:15;;;;;;;8.67;3.07;;;34.00;1.00;;;;;;5091924;28;20621;-72
2022/10/03 12:32:48;;;;;;;6.23;3.30;;;31.20;1.00;;;;;;5088791;28;20676;-72
2022/10/03 12:35:43;;;;;;;8.13;3.67;;;28.20;1.00;;;;;;5086630;28;20189;-76
2022/10/03 12:38:37;;;;;;;6.80;3.47;;;25.90;1.00;;;;;;5091892;28;20440;-73
2022/10/03 12:41:25;;;;;;;8.80;3.43;;;24.30;1.00;;;;;;5084517;28;20491;-74
2022/10/03 12:44:04;;;;;;;10.10;4.67;;;23.10;1.00;;;;;;5089283;28;20412;-72
2022/10/03 12:46:54;;;;;;;16.63;6.00;;;22.50;1.00;;;;;;5088227;28;20486;-72
2022/10/03 12:49:52;;;;;;;6.23;3.20;;;22.40;1.00;;;;;;5088088;28;20453;-74
2022/10/03 12:52:24;;;;;;;8.13;3.60;;;23.30;1.00;;;;;;5080543;28;21217;-72
2022/10/03 12:54:58;;;;;;;9.50;3.97;;;25.20;1.00;;;;;;5081540;28;20480;-71
2022/10/03 12:57:45;;;;;;;9.20;3.70;;;27.10;1.00;;;;;;5092290;28;21047;-72
2022/10/03 13:00:35;;;;;;;5.90;2.93;;;28.90;1.00;;;;;;5087079;28;20543;-72
2022/10/03 13:03:09;;;;;;;6.30;2.80;;;29.70;1.00;;;;;;5082754;28;20504;-72
2022/10/03 13:05:45;;;;;;;7.33;3.00;;;29.10;1.00;;;;;;5081720;28;20561;-75
2022/10/03 13:08:39;;;;;;;6.67;2.80;;;28.40;1.00;;;;;;5084819;28;20455;-72
2022/10/03 13:11:22;;;;;;;6.00;2.63;;;27.10;1.00;;;;;;5075929;28;20430;-74
2022/10/03 13:14:12;;;;;;;7.30;3.10;;;26.40;1.00;;;;;;5090182;28;20871;-71
2022/10/03 13:17:16;;;;;;;6.20;3.20;;;27.20;1.00;;;;;;5087944;28;20952;-74
2022/10/03 13:20:02;;;;;;;6.40;2.73;;;27.50;1.00;;;;;;5086749;28;20477;-72
2022/10/03 13:22:49;;;;;;;5.87;2.50;;;28.00;1.00;;;;;;5079258;28;20516;-72
2022/10/03 13:25:33;;;;;;;7.60;2.93;;;28.20;1.00;;;;;;5084665;28;20389;-73
2022/10/03 13:28:30;;;;;;;7.80;2.17;;;28.50;1.00;;;;;;5089018;28;20429;-72
2022/10/03 13:31:23;;;;;;;8.40;5.80;;;28.50;1.00;;;;;;5077821;28;20448;-72
2022/10/03 13:34:02;;;;;;;6.70;3.33;;;28.10;1.00;;;;;;5079012;28;20464;-72
2022/10/03 13:36:58;;;;;;;5.50;2.47;;;28.40;1.00;;;;;;5069820;28;20977;-72
2022/10/03 13:39:47;;;;;;;5.97;2.30;;;29.50;1.00;;;;;;5080803;28;20559;-72
2022/10/03 13:42:15;;;;;;;5.57;2.90;;;31.00;1.00;;;;;;5067896;28;20175;-71
2022/10/03 13:45:13;;;;;;;5.70;2.88;;;31.50;1.00;;;;;;5088529;28;20167;-75
2022/10/03 13:47:51;;;;;;;9.20;3.00;;;32.40;1.00;;;;;;5086957;28;20713;-76
2022/10/03 13:50:35;;;;;;;7.13;3.17;;;32.10;1.00;;;;;;5089013;28;20179;-73
2022/10/03 13:53:13;;;;;;;4.60;2.50;;;32.50;1.00;;;;;;5074439;28;20178;-73
2022/10/03 13:55:52;;;;;;;6.50;2.30;;;33.30;1.00;;;;;;5083653;28;20179;-73
2022/10/03 13:58:57;;;;;;;5.30;2.60;;;34.90;1.00;;;;;;5086977;28;20707;-73
2022/10/03 14:01:40;;;;;;;6.60;2.50;;;34.70;1.00;;;;;;5083977;28;20182;-74
2022/10/03 14:04:47;;;;;;;5.88;2.63;;;32.60;1.00;;;;;;5069755;28;20249;-73
2022/10/03 14:07:38;;;;;;;5.93;2.50;;;31.00;1.00;;;;;;5082796;28;20650;-72
2022/10/03 14:10:39;;;;;;;5.30;2.77;;;29.30;1.00;;;;;;5083024;28;20195;-75
2022/10/03 14:13:19;;;;;;;5.73;2.60;;;27.50;1.00;;;;;;5082429;28;20239;-73
2022/10/03 14:15:48;;;;;;;10.57;3.10;;;25.80;1.00;;;;;;5087217;28;20214;-74
2022/10/03 14:18:22;;;;;;;5.90;2.90;;;24.80;1.00;;;;;;5077521;28;20458;-73
2022/10/03 14:21:25;;;;;;;7.30;3.23;;;24.00;1.00;;;;;;5083666;28;20456;-75
2022/10/03 14:24:12;;;;;;;7.33;3.40;;;23.70;1.00;;;;;;5085211;28;20425;-75
2022/10/03 14:26:57;;;;;;;9.97;4.20;;;23.30;1.00;;;;;;5083642;28;20900;-72
2022/10/03 14:29:33;;;;;;;7.90;3.60;;;22.90;1.00;;;;;;5085126;28;20507;-72
2022/10/03 14:32:08;;;;;;;12.40;5.63;;;22.60;1.00;;;;;;5087116;28;20419;-74
2022/10/03 14:34:33;;;;;;;7.43;3.00;;;22.40;1.00;;;;;;5086420;28;20489;-75